Time;durP1;ratioP1;P1;durP2;ratioP2;P2;SDS_P1;SDS_P2;PMS_P1;PMS_P2;Temp;Humidity;BMP_temperature;BMP_pressure;BME280_temperature;BME280_humidity;BME280_pressure;Samples;Min_cycle;Max_cycle;Signal;HPM_P1;HPM_P2
2023/09/04 00:04:10;;;;;;;20.20;13.55;;;;;;;11.27;100.00;102417.59;10394798;28;20076;-80
2023/09/04 00:09:10;;;;;;;23.50;15.35;;;;;;;11.26;100.00;102422.72;10462041;28;20045;-80
2023/09/04 00:14:11;;;;;;;31.17;22.00;;;;;;;11.26;100.00;102413.16;10447312;28;20134;-80
2023/09/04 00:19:12;;;;;;;27.63;17.45;;;;;;;11.16;100.00;102415.94;10462492;28;20124;-80
2023/09/04 00:24:12;;;;;;;24.92;15.13;;;;;;;11.09;100.00;102418.94;10426388;28;20041;-79
2023/09/04 00:29:13;;;;;;;25.40;15.07;;;;;;;11.03;100.00;102411.53;10451099;28;20422;-79
2023/09/04 00:34:13;;;;;;;23.65;15.73;;;;;;;11.07;100.00;102407.44;10441783;28;20029;-79
2023/09/04 00:39:14;;;;;;;25.90;18.40;;;;;;;11.03;100.00;102408.91;10478798;28;20109;-79
2023/09/04 00:44:15;;;;;;;26.38;16.13;;;;;;;10.87;100.00;102405.22;10437455;28;20060;-79
2023/09/04 00:49:15;;;;;;;28.25;18.75;;;;;;;10.83;100.00;102403.16;10459877;28;20090;-79
2023/09/04 00:54:16;;;;;;;28.60;18.88;;;;;;;10.78;100.00;102396.69;10446090;28;20140;-79
2023/09/04 00:59:18;;;;;;;25.88;16.55;;;;;;;10.65;100.00;102399.22;10485674;28;20066;-79
2023/09/04 01:04:20;;;;;;;28.50;20.70;;;;;;;10.64;100.00;102400.97;10488532;28;20109;-79
2023/09/04 01:09:20;;;;;;;34.03;20.92;;;;;;;10.56;100.00;102402.13;10448969;28;20378;-80
2023/09/04 01:14:21;;;;;;;25.92;16.33;;;;;;;10.51;100.00;102404.38;10459783;28;20041;-80
2023/09/04 01:19:21;;;;;;;18.70;11.80;;;;;;;10.37;100.00;102402.44;10453807;28;20121;-80
2023/09/04 01:24:22;;;;;;;23.63;14.70;;;;;;;10.28;100.00;102403.59;10445697;28;20045;-80
2023/09/04 01:29:28;;;;;;;23.05;14.65;;;;;;;10.24;100.00;102400.66;10487334;28;20115;-80
2023/09/04 01:34:34;;;;;;;29.65;17.95;;;;;;;10.12;100.00;102409.41;10447407;28;20083;-80
2023/09/04 01:39:34;;;;;;;28.52;19.23;;;;;;;10.21;100.00;102405.66;10426222;28;20053;-80
2023/09/04 01:44:35;;;;;;;37.08;23.48;;;;;;;10.19;100.00;102391.53;10496832;28;20488;-80
2023/09/04 01:49:35;;;;;;;36.22;24.40;;;;;;;10.10;100.00;102403.16;10429606;28;20041;-80
2023/09/04 01:54:36;;;;;;;34.00;24.27;;;;;;;10.10;100.00;102392.69;10444511;28;20037;-80
2023/09/04 01:59:37;;;;;;;43.13;25.85;;;;;;;10.07;100.00;102399.38;10468516;28;20555;-80
2023/09/04 02:04:37;;;;;;;36.40;23.48;;;;;;;10.15;100.00;102393.00;10487452;28;20112;-80
2023/09/04 02:09:38;;;;;;;41.17;24.52;;;;;;;10.15;100.00;102390.41;10457491;28;20045;-80
2023/09/04 02:14:38;;;;;;;47.03;26.73;;;;;;;10.22;100.00;102379.59;10471740;28;20044;-80
2023/09/04 02:19:39;;;;;;;44.05;23.10;;;;;;;10.12;100.00;102375.41;10480769;28;20120;-81
2023/09/04 02:24:41;;;;;;;52.67;27.40;;;;;;;10.01;100.00;102375.38;10460485;28;20397;-81
2023/09/04 02:29:42;;;;;;;;;;;;;;;9.91;100.00;102369.47;10486199;28;20514;-80
2023/09/04 02:34:42;;;;;;;42.25;25.58;;;;;;;9.87;100.00;102367.41;10484776;28;19926;-80
2023/09/04 02:39:43;;;;;;;41.15;26.60;;;;;;;9.89;100.00;102365.81;10445932;28;20235;-80
2023/09/04 02:44:44;;;;;;;46.03;29.02;;;;;;;9.89;100.00;102370.16;10442241;28;20041;-80
2023/09/04 02:49:44;;;;;;;57.10;33.95;;;;;;;9.88;100.00;102369.25;10498266;28;20051;-80
2023/09/04 02:54:45;;;;;;;58.03;33.60;;;;;;;9.86;100.00;102372.56;10467697;28;20033;-80
2023/09/04 02:59:45;;;;;;;51.60;31.05;;;;;;;9.83;100.00;102366.31;10482204;28;20029;-80
2023/09/04 03:04:46;;;;;;;58.88;34.20;;;;;;;9.77;100.00;102375.38;10466877;28;20033;-80
2023/09/04 03:09:46;;;;;;;66.43;37.28;;;;;;;9.75;100.00;102367.44;10465218;28;20127;-80
2023/09/04 03:14:52;;;;;;;56.50;34.03;;;;;;;9.88;100.00;102361.41;10451394;28;20083;-80
2023/09/04 03:19:53;;;;;;;66.05;36.78;;;;;;;9.99;100.00;102347.41;10498762;28;20495;-80
2023/09/04 03:24:54;;;;;;;73.60;37.67;;;;;;;10.02;100.00;102344.13;10464802;28;20137;-80
2023/09/04 03:29:54;;;;;;;68.82;37.05;;;;;;;10.13;100.00;102345.81;10447453;28;20036;-80
2023/09/04 03:34:55;;;;;;;60.25;31.90;;;;;;;10.04;100.00;102344.22;10443043;28;20116;-80
2023/09/04 03:40:03;;;;;;;56.83;32.92;;;;;;;9.85;100.00;102345.47;10480818;28;20135;-81
2023/09/04 03:45:05;;;;;;;69.78;36.15;;;;;;;9.82;100.00;102338.34;10435013;28;20494;-80
2023/09/04 03:50:08;;;;;;;65.93;37.10;;;;;;;9.79;100.00;102338.09;10482873;28;20036;-81
2023/09/04 03:55:10;;;;;;;66.93;35.95;;;;;;;9.63;100.00;102338.66;10444721;28;20036;-80
2023/09/04 04:00:17;;;;;;;62.27;37.17;;;;;;;9.52;100.00;102339.53;10399945;28;20053;-81
2023/09/04 04:05:17;;;;;;;66.20;37.67;;;;;;;9.49;100.00;102339.31;10416988;28;20044;-81
2023/09/04 04:10:18;;;;;;;68.63;37.45;;;;;;;9.41;100.00;102333.50;10484039;28;20448;-80
2023/09/04 04:15:19;;;;;;;70.25;40.53;;;;;;;9.42;100.00;102337.03;10400765;28;20115;-80
2023/09/04 04:20:20;;;;;;;67.50;37.22;;;;;;;9.49;100.00;102336.69;10461668;28;20045;-79
2023/09/04 04:25:20;;;;;;;72.53;41.10;;;;;;;9.44;100.00;102336.38;10474193;28;20036;-80
2023/09/04 04:30:21;;;;;;;68.35;39.30;;;;;;;9.42;100.00;102332.72;10453388;28;20480;-80
2023/09/04 04:35:21;;;;;;;62.95;37.80;;;;;;;9.45;100.00;102334.63;10447957;28;20039;-80
2023/09/04 04:40:24;;;;;;;69.97;36.03;;;;;;;9.42;100.00;102330.09;10450536;28;20029;-80
2023/09/04 04:45:25;;;;;;;52.10;30.98;;;;;;;9.43;100.00;102324.09;10408001;28;20033;-80
2023/09/04 04:50:25;;;;;;;60.00;34.33;;;;;;;9.52;100.00;102326.47;10469159;28;20033;-80
2023/09/04 04:55:26;;;;;;;69.35;37.13;;;;;;;9.46;100.00;102331.22;10422822;28;20071;-80
2023/09/04 05:00:26;;;;;;;73.07;37.95;;;;;;;9.42;100.00;102321.34;10483507;28;20032;-80
2023/09/04 05:05:27;;;;;;;45.92;29.08;;;;;;;9.49;100.00;102321.94;10430048;28;20037;-79
2023/09/04 05:10:28;;;;;;;111.28;45.15;;;;;;;9.70;100.00;102312.16;10443244;28;20036;-79
2023/09/04 05:15:28;;;;;;;67.07;36.15;;;;;;;9.81;100.00;102318.22;10433386;28;20429;-80
2023/09/04 05:20:29;;;;;;;77.70;39.22;;;;;;;9.95;100.00;102319.22;10438302;28;20052;-79
2023/09/04 05:25:29;;;;;;;86.90;37.72;;;;;;;10.06;100.00;102311.22;10414265;28;20392;-81
2023/09/04 05:30:32;;;;;;;76.30;38.67;;;;;;;10.17;100.00;102312.03;10461624;28;20152;-79
2023/09/04 05:35:33;;;;;;;71.15;32.55;;;;;;;10.28;100.00;102306.75;10451457;28;20102;-80
2023/09/04 05:40:34;;;;;;;59.92;33.15;;;;;;;10.44;100.00;102313.13;10442715;28;20045;-78
2023/09/04 05:45:34;;;;;;;57.72;33.83;;;;;;;10.57;100.00;102313.19;10421994;28;20564;-78
2023/09/04 05:50:35;;;;;;;61.80;33.85;;;;;;;10.82;100.00;102300.94;10443277;28;20087;-77
2023/09/04 05:55:36;;;;;;;49.00;30.40;;;;;;;11.13;100.00;102303.06;10407346;28;20129;-78
2023/09/04 06:00:36;;;;;;;61.45;32.35;;;;;;;11.69;100.00;102301.53;10434788;28;20033;-79
2023/09/04 06:05:37;;;;;;;37.15;23.50;;;;;;;13.06;100.00;102298.78;10414635;28;20064;-80
2023/09/04 06:10:37;;;;;;;30.13;20.65;;;;;;;13.80;100.00;102293.44;10439567;28;20036;-78
2023/09/04 06:15:38;;;;;;;21.20;14.50;;;;;;;14.26;100.00;102291.56;10447594;28;20090;-80
2023/09/04 06:20:38;;;;;;;12.13;10.25;;;;;;;15.12;100.00;102282.09;10443589;28;20408;-77
2023/09/04 06:25:41;;;;;;;11.48;10.07;;;;;;;16.16;100.00;102274.03;10444103;28;20528;-77
2023/09/04 06:30:43;;;;;;;11.48;7.93;;;;;;;17.28;100.00;102239.31;10427347;28;20060;-78
2023/09/04 06:35:43;;;;;;;9.60;7.20;;;;;;;18.58;100.00;102162.22;10468964;28;20048;-78
2023/09/04 06:40:44;;;;;;;8.00;6.13;;;;;;;19.18;100.00;102192.56;10484918;28;20055;-79
2023/09/04 06:45:44;;;;;;;10.00;5.53;;;;;;;20.07;100.00;102225.47;10475600;28;20123;-79
2023/09/04 06:50:48;;;;;;;10.17;5.77;;;;;;;20.98;100.00;102234.22;10456325;28;20048;-79
2023/09/04 06:55:48;;;;;;;9.75;5.07;;;;;;;22.12;100.00;102265.38;10434542;28;20070;-80
2023/09/04 07:00:49;;;;;;;8.27;5.20;;;;;;;23.03;100.00;102285.00;10472329;28;20045;-81
2023/09/04 07:05:49;;;;;;;7.20;4.40;;;;;;;24.00;100.00;102313.38;10440285;28;20036;-80
2023/09/04 07:10:51;;;;;;;7.37;4.87;;;;;;;24.36;100.00;102327.22;10450089;28;21435;-77
2023/09/04 07:15:51;;;;;;;;;;;;;;;25.17;100.00;102331.78;10474101;28;20044;-85
2023/09/04 07:20:52;;;;;;;8.03;5.10;;;;;;;25.50;100.00;102341.94;10409138;28;19925;-80
2023/09/04 07:25:53;;;;;;;6.37;4.33;;;;;;;25.44;100.00;102363.28;10437631;28;20174;-79
2023/09/04 07:31:14;;;;;;;6.80;4.32;;;;;;;25.69;100.00;102384.09;10438392;28;20621;-80
2023/09/04 07:36:14;;;;;;;6.72;4.95;;;;;;;25.39;100.00;102375.72;10465032;28;20047;-80
2023/09/04 07:41:15;;;;;;;6.70;4.00;;;;;;;25.82;100.00;102390.44;10449699;28;20067;-81
2023/09/04 07:46:16;;;;;;;6.73;5.00;;;;;;;26.15;100.00;102378.19;10424757;28;20342;-82
2023/09/04 07:51:18;;;;;;;5.93;3.97;;;;;;;26.02;100.00;102388.81;10402664;28;20045;-80
2023/09/04 07:56:20;;;;;;;7.05;4.43;;;;;;;25.73;100.00;102381.44;10452004;28;20442;-78
2023/09/04 08:01:21;;;;;;;5.45;4.20;;;;;;;25.72;100.00;102387.69;10451716;28;20041;-79
2023/09/04 08:06:21;;;;;;;6.63;4.27;;;;;;;26.05;100.00;102372.72;10450272;28;20045;-79
2023/09/04 08:11:22;;;;;;;9.47;4.83;;;;;;;26.37;100.00;102372.06;10449582;28;20462;-78
2023/09/04 08:16:23;;;;;;;12.53;5.33;;;;;;;26.75;100.00;102367.78;10424726;28;20042;-78
2023/09/04 08:21:24;;;;;;;7.63;4.43;;;;;;;27.08;100.00;102365.22;10450266;28;20103;-78
2023/09/04 08:26:25;;;;;;;6.80;3.47;;;;;;;27.27;100.00;102355.41;10488880;28;20607;-79
2023/09/04 08:31:25;;;;;;;6.72;3.28;;;;;;;27.98;100.00;102351.81;10490025;28;20043;-79
2023/09/04 08:36:26;;;;;;;10.70;4.65;;;;;;;27.51;100.00;102348.28;10490829;28;20045;-79
2023/09/04 08:41:27;;;;;;;5.97;3.77;;;;;;;27.70;100.00;102354.53;10488818;28;20060;-80
2023/09/04 08:46:29;;;;;;;7.07;4.05;;;;;;;27.95;100.00;102360.81;10472970;28;20037;-79
2023/09/04 08:51:29;;;;;;;6.03;3.55;;;;;;;28.54;93.58;102375.91;10488648;28;20036;-80
2023/09/04 08:56:30;;;;;;;8.95;3.67;;;;;;;27.75;100.00;102366.19;10487840;28;20484;-80
2023/09/04 09:01:33;;;;;;;8.73;3.87;;;;;;;27.52;100.00;102364.41;10471542;28;20039;-80
2023/09/04 09:06:33;;;;;;;5.00;3.40;;;;;;;27.50;100.00;102355.44;10488817;28;20442;-80
2023/09/04 09:11:34;;;;;;;5.00;3.40;;;;;;;28.44;99.64;102361.63;10471015;28;20036;-79
2023/09/04 09:16:34;;;;;;;7.57;3.07;;;;;;;28.38;97.01;102353.56;10471496;28;20109;-80
2023/09/04 09:21:35;;;;;;;8.30;3.17;;;;;;;28.95;93.75;102358.69;10488519;28;20109;-81
2023/09/04 09:26:39;;;;;;;5.78;2.97;;;;;;;29.22;100.00;102343.25;10489112;28;20432;-82
2023/09/04 09:31:42;;;;;;;7.03;3.30;;;;;;;29.98;87.92;102337.22;10470479;28;20094;-80
2023/09/04 09:36:43;;;;;;;5.18;3.25;;;;;;;30.19;72.53;102337.94;10451707;28;20114;-79
2023/09/04 09:41:45;;;;;;;5.32;3.08;;;;;;;30.72;67.92;102342.69;10462324;28;20446;-80
2023/09/04 09:46:47;;;;;;;5.28;2.72;;;;;;;29.43;76.80;102334.13;10513011;28;20192;-81
2023/09/04 09:51:51;;;;;;;5.07;3.22;;;;;;;29.82;79.89;102327.50;10420042;28;20064;-80
2023/09/04 09:56:52;;;;;;;4.30;2.95;;;;;;;29.93;66.35;102317.50;10463961;28;20423;-78
2023/09/04 10:01:52;;;;;;;5.47;2.97;;;;;;;30.08;79.10;102329.94;10426948;28;20128;-81
2023/09/04 10:06:54;;;;;;;4.80;2.90;;;;;;;29.59;75.81;102324.09;10461198;28;20033;-79
2023/09/04 10:12:28;;;;;;;5.93;2.55;;;;;;;30.77;69.91;102328.19;10448372;28;20063;-77
2023/09/04 10:18:05;;;;;;;4.85;2.75;;;;;;;30.83;61.02;102316.41;10426858;28;20046;-78
2023/09/04 10:23:07;;;;;;;4.97;2.83;;;;;;;31.23;64.40;102317.63;10435750;28;20512;-78
2023/09/04 10:28:12;;;;;;;4.57;2.55;;;;;;;31.17;51.17;102313.22;10453863;28;20043;-77
2023/09/04 10:33:13;;;;;;;4.15;2.47;;;;;;;31.69;53.57;102307.81;10470147;28;20124;-77
2023/09/04 10:38:14;;;;;;;;;;;;;;;31.58;53.93;102304.41;10465512;28;20037;-77
2023/09/04 10:43:14;;;;;;;3.47;2.63;;;;;;;31.11;58.99;102301.56;10444290;28;19924;-77
2023/09/04 10:48:15;;;;;;;5.87;2.93;;;;;;;30.95;59.32;102293.69;10449903;28;20068;-77
2023/09/04 10:53:15;;;;;;;4.77;3.27;;;;;;;30.55;50.80;102297.88;10483426;28;20425;-78
2023/09/04 10:58:16;;;;;;;3.37;2.50;;;;;;;29.98;57.68;102290.44;10424819;28;20461;-78
2023/09/04 11:03:19;;;;;;;5.10;2.93;;;;;;;30.24;53.62;102287.47;10466400;28;20037;-78
2023/09/04 11:08:31;;;;;;;5.07;3.40;;;;;;;29.89;55.68;102276.13;10469240;28;20081;-77
2023/09/04 11:13:40;;;;;;;4.20;2.67;;;;;;;30.82;52.65;102266.00;10492116;28;20032;-78
2023/09/04 11:18:41;;;;;;;3.75;2.58;;;;;;;30.51;55.53;102263.72;10484291;28;20064;-78
2023/09/04 11:23:41;;;;;;;4.43;2.70;;;;;;;31.27;53.64;102257.16;10516569;28;20567;-78
2023/09/04 11:28:42;;;;;;;5.57;2.30;;;;;;;30.72;47.49;102253.53;10484165;28;20032;-76
2023/09/04 11:33:42;;;;;;;3.73;2.67;;;;;;;30.08;53.13;102246.25;10447810;28;20319;-77
2023/09/04 11:38:43;;;;;;;5.60;3.03;;;;;;;30.37;45.08;102234.19;10424820;28;20526;-77
2023/09/04 11:43:43;;;;;;;5.33;3.33;;;;;;;30.18;48.73;102239.84;10438978;28;20037;-79
2023/09/04 11:48:44;;;;;;;4.07;2.73;;;;;;;30.24;51.04;102236.16;10442177;28;20468;-77
2023/09/04 11:53:45;;;;;;;5.73;3.23;;;;;;;31.53;50.43;102226.03;10441410;28;20037;-77
2023/09/04 11:58:46;;;;;;;4.63;2.28;;;;;;;31.69;45.49;102231.16;10424035;28;20392;-78
2023/09/04 12:03:47;;;;;;;4.30;2.63;;;;;;;31.23;46.90;102225.69;10442799;28;20041;-77
2023/09/04 12:08:47;;;;;;;5.13;2.53;;;;;;;31.03;47.57;102218.78;10423970;28;20076;-78
2023/09/04 12:13:48;;;;;;;5.93;2.50;;;;;;;29.76;48.47;102223.22;10455012;28;20363;-78
2023/09/04 12:18:49;;;;;;;14.37;10.67;;;;;;;30.08;49.52;102208.47;10439559;28;20033;-79
2023/09/04 12:23:50;;;;;;;3.60;2.47;;;;;;;30.67;47.69;102210.38;10450038;28;20040;-77
2023/09/04 12:28:51;;;;;;;5.60;2.35;;;;;;;30.24;50.06;102205.56;10473926;28;20516;-77
2023/09/04 12:33:52;;;;;;;4.97;2.65;;;;;;;30.44;52.48;102192.66;10464576;28;20025;-79
2023/09/04 12:38:52;;;;;;;4.53;2.38;;;;;;;30.49;47.21;102195.31;10463637;28;20071;-77
2023/09/04 12:43:53;;;;;;;3.20;2.13;;;;;;;30.71;48.14;102193.19;10448187;28;20139;-78
2023/09/04 12:48:53;;;;;;;6.43;2.37;;;;;;;30.92;41.15;102193.75;10430469;28;20071;-79
2023/09/04 12:53:54;;;;;;;7.03;2.43;;;;;;;30.61;41.41;102192.47;10447903;28;20043;-78
2023/09/04 12:58:54;;;;;;;3.57;2.37;;;;;;;30.58;54.03;102186.16;10447712;28;20611;-78
2023/09/04 13:03:55;;;;;;;4.37;2.67;;;;;;;30.29;49.19;102174.91;10446930;28;20140;-77
2023/09/04 13:08:55;;;;;;;5.47;3.17;;;;;;;31.09;45.47;102176.34;10448113;28;20048;-78
2023/09/04 13:13:56;;;;;;;5.10;2.60;;;;;;;31.60;51.39;102173.59;10430384;28;20048;-78
2023/09/04 13:18:56;;;;;;;7.40;3.27;;;;;;;31.77;45.21;102165.19;10447479;28;20040;-78
2023/09/04 13:23:57;;;;;;;3.50;2.53;;;;;;;31.10;45.14;102161.91;10447525;28;20807;-79
2023/09/04 13:28:57;;;;;;;4.23;2.97;;;;;;;31.43;49.43;102144.19;10447301;28;21223;-80
2023/09/04 13:33:58;;;;;;;3.50;2.70;;;;;;;31.30;48.21;102140.81;10447187;28;20047;-79
2023/09/04 13:38:58;;;;;;;5.80;3.03;;;;;;;31.30;52.20;102134.53;10446967;28;20293;-78
2023/09/04 13:43:59;;;;;;;6.83;2.73;;;;;;;31.51;43.11;102114.28;10446020;28;20475;-78
2023/09/04 13:49:00;;;;;;;5.00;2.97;;;;;;;30.73;45.82;102113.00;10446164;28;20264;-79
2023/09/04 13:54:01;;;;;;;6.07;2.57;;;;;;;30.48;50.97;102104.41;10445701;28;20108;-78
2023/09/04 13:59:01;;;;;;;5.18;2.15;;;;;;;30.57;47.21;102093.44;10445436;28;20037;-78
2023/09/04 14:04:03;;;;;;;3.10;2.03;;;;;;;30.60;52.04;102089.81;10444503;28;20111;-77
2023/09/04 14:09:04;;;;;;;3.88;2.25;;;;;;;30.20;46.66;102075.16;10444523;28;20094;-77
2023/09/04 14:14:04;;;;;;;3.33;2.55;;;;;;;30.02;49.41;102084.41;10445264;28;20087;-78
2023/09/04 14:19:05;;;;;;;3.17;2.17;;;;;;;29.88;53.56;102069.28;10443977;28;20048;-76
2023/09/04 14:24:06;;;;;;;4.40;2.53;;;;;;;29.96;55.76;102074.59;10427683;28;20040;-77
2023/09/04 14:29:06;;;;;;;5.88;3.67;;;;;;;29.76;54.55;102073.97;10443569;28;20431;-77
2023/09/04 14:34:07;;;;;;;4.57;2.50;;;;;;;30.11;63.54;102069.91;10435741;28;20128;-77
2023/09/04 14:39:07;;;;;;;3.93;2.33;;;;;;;30.20;57.21;102068.84;10414649;28;20029;-77
2023/09/04 14:44:08;;;;;;;7.77;3.30;;;;;;;29.90;64.28;102066.56;10422623;28;20042;-75
2023/09/04 14:49:10;;;;;;;4.33;2.20;;;;;;;29.89;65.30;102070.19;10418262;28;20050;-76
2023/09/04 14:54:11;;;;;;;4.43;2.42;;;;;;;29.93;71.66;102071.03;10417535;28;20049;-76
2023/09/04 14:59:11;;;;;;;3.33;2.53;;;;;;;29.99;67.69;102069.16;10417375;28;20071;-76
2023/09/04 15:04:13;;;;;;;4.07;2.50;;;;;;;29.47;63.81;102068.03;10433351;28;20834;-78
2023/09/04 15:09:13;;;;;;;5.90;2.67;;;;;;;29.24;73.41;102066.47;10421117;28;21607;-77
2023/09/04 15:14:14;;;;;;;7.90;2.93;;;;;;;28.86;76.42;102059.72;10424863;28;20124;-76
2023/09/04 15:19:14;;;;;;;11.90;3.57;;;;;;;28.86;84.29;102054.31;10400125;28;20098;-77
2023/09/04 15:24:15;;;;;;;3.93;2.40;;;;;;;28.49;99.15;102051.94;10438912;28;20037;-77
2023/09/04 15:29:15;;;;;;;6.70;2.70;;;;;;;28.21;92.69;102046.78;10415784;28;20055;-77
2023/09/04 15:34:16;;;;;;;7.27;2.53;;;;;;;27.83;93.81;102049.69;10394464;28;20791;-77
2023/09/04 15:39:16;;;;;;;3.77;2.43;;;;;;;27.50;100.00;102034.66;10386477;28;20455;-77
2023/09/04 15:44:17;;;;;;;4.97;3.30;;;;;;;27.14;100.00;102023.13;10395455;28;20120;-77
2023/09/04 15:49:17;;;;;;;6.27;3.13;;;;;;;26.33;100.00;102020.53;10399703;28;20132;-77
2023/09/04 15:54:18;;;;;;;5.40;3.03;;;;;;;25.56;100.00;102014.13;10438895;28;20037;-77
2023/09/04 15:59:19;;;;;;;5.97;2.40;;;;;;;25.26;100.00;102010.41;10481631;28;20037;-77
2023/09/04 16:04:19;;;;;;;8.00;4.17;;;;;;;24.66;100.00;102012.66;10460222;28;20182;-77
2023/09/04 16:09:20;;;;;;;6.03;2.70;;;;;;;24.30;100.00;102007.06;10450545;28;20484;-78
2023/09/04 16:14:20;;;;;;;5.37;3.60;;;;;;;23.80;100.00;101994.94;10387317;28;20045;-76
2023/09/04 16:19:21;;;;;;;6.03;2.60;;;;;;;23.28;100.00;101975.69;10406109;28;20056;-75
2023/09/04 16:24:21;;;;;;;7.80;3.37;;;;;;;22.70;100.00;101970.41;10418533;28;20088;-75
2023/09/04 16:29:22;;;;;;;8.67;2.87;;;;;;;22.43;100.00;101966.41;10454486;28;20068;-75
2023/09/04 16:34:23;;;;;;;7.20;3.57;;;;;;;22.05;100.00;101919.59;10444445;28;20041;-75
2023/09/04 16:39:23;;;;;;;5.63;3.27;;;;;;;21.57;100.00;101884.06;10447359;28;20041;-75
2023/09/04 16:44:24;;;;;;;6.67;3.67;;;;;;;21.21;100.00;101878.09;10441747;28;20041;-74
2023/09/04 16:49:24;;;;;;;4.87;2.97;;;;;;;20.89;100.00;101873.03;10445376;28;20351;-76
2023/09/04 16:54:25;;;;;;;4.10;3.00;;;;;;;20.47;100.00;101858.78;10445467;28;20049;-76
2023/09/04 16:59:26;;;;;;;5.37;2.73;;;;;;;20.14;100.00;101866.88;10479266;28;20097;-75
2023/09/04 17:04:26;;;;;;;6.70;4.17;;;;;;;19.85;100.00;101841.34;10440870;28;20060;-75
2023/09/04 17:09:27;;;;;;;6.07;3.43;;;;;;;19.62;100.00;101823.09;10411221;28;20128;-75
2023/09/04 17:14:27;;;;;;;6.27;4.10;;;;;;;19.41;100.00;101826.09;10395918;28;20072;-76
2023/09/04 17:19:28;;;;;;;6.70;4.03;;;;;;;19.20;100.00;101834.38;10481855;28;20033;-75
2023/09/04 17:24:28;;;;;;;5.55;3.33;;;;;;;19.02;100.00;101824.16;10498061;28;20039;-75
2023/09/04 17:29:29;;;;;;;7.63;3.13;;;;;;;18.87;100.00;101819.25;10463310;28;20119;-74
2023/09/04 17:34:30;;;;;;;5.38;3.13;;;;;;;18.69;100.00;101804.63;10479304;28;20041;-74
2023/09/04 17:39:30;;;;;;;6.03;2.88;;;;;;;18.49;100.00;101796.97;10458364;28;20077;-74
2023/09/04 17:44:34;;;;;;;6.63;4.18;;;;;;;18.34;100.00;101797.44;10405291;28;20038;-75
2023/09/04 17:49:36;;;;;;;6.78;3.28;;;;;;;18.28;100.00;101798.97;10429316;28;20052;-75
2023/09/04 17:54:36;;;;;;;;;;;;;;;18.09;100.00;101814.31;10466820;28;20531;-74
2023/09/04 17:59:37;;;;;;;4.70;3.05;;;;;;;17.92;100.00;101816.38;10442635;28;19921;-75
2023/09/04 18:04:37;;;;;;;8.57;3.90;;;;;;;17.67;100.00;101818.22;10438143;28;20571;-74
2023/09/04 18:09:39;;;;;;;3.83;3.03;;;;;;;17.49;100.00;101822.91;10376035;28;20545;-74
2023/09/04 18:14:39;;;;;;;5.05;3.55;;;;;;;17.36;100.00;101824.19;10420361;28;20048;-75
2023/09/04 18:19:40;;;;;;;5.35;3.65;;;;;;;17.19;100.00;101819.22;10402906;28;20408;-74
2023/09/04 18:24:40;;;;;;;4.88;3.72;;;;;;;17.02;100.00;101821.28;10418273;27;20036;-75
2023/09/04 18:29:41;;;;;;;6.47;3.17;;;;;;;16.91;100.00;101815.53;10465839;28;20067;-74
2023/09/04 18:34:41;;;;;;;6.15;3.58;;;;;;;16.79;100.00;101818.66;10439604;28;20183;-74
2023/09/04 18:39:42;;;;;;;11.02;4.68;;;;;;;16.64;100.00;101820.72;10451586;28;20431;-74
2023/09/04 18:44:43;;;;;;;12.98;4.22;;;;;;;16.56;100.00;101802.81;10443878;28;20127;-74
2023/09/04 18:49:47;;;;;;;8.38;4.20;;;;;;;16.52;100.00;101806.19;10440227;28;20043;-75
2023/09/04 18:54:48;;;;;;;8.82;4.25;;;;;;;16.57;100.00;101806.34;10440149;28;20528;-74
2023/09/04 18:59:49;;;;;;;11.18;4.50;;;;;;;16.65;100.00;101812.81;10471244;28;20051;-75
2023/09/04 19:04:49;;;;;;;7.00;4.45;;;;;;;16.76;100.00;101799.13;10401486;28;20091;-75
2023/09/04 19:09:51;;;;;;;10.57;3.03;;;;;;;16.72;100.00;101793.72;10477269;28;20043;-75
2023/09/04 19:14:51;;;;;;;6.35;4.07;;;;;;;16.87;100.00;101800.41;10443490;28;20025;-75
2023/09/04 19:19:52;;;;;;;9.73;3.92;;;;;;;16.85;100.00;101796.81;10485273;28;20544;-76
2023/09/04 19:24:52;;;;;;;7.20;3.30;;;;;;;16.77;100.00;101795.63;10469918;28;20037;-76
2023/09/04 19:29:53;;;;;;;9.60;4.18;;;;;;;16.58;100.00;101803.78;10466094;28;20419;-75
2023/09/04 19:34:54;;;;;;;6.38;4.10;;;;;;;16.52;100.00;101797.34;10444282;28;20044;-75
2023/09/04 19:39:55;;;;;;;9.95;3.45;;;;;;;16.48;100.00;101800.72;10433609;28;20111;-74
2023/09/04 19:44:55;;;;;;;9.07;4.25;;;;;;;16.39;100.00;101790.72;10486099;28;20040;-74
2023/09/04 19:49:56;;;;;;;5.95;3.85;;;;;;;16.24;100.00;101783.06;10431625;28;20104;-73
2023/09/04 19:54:56;;;;;;;6.53;3.10;;;;;;;16.19;100.00;101769.72;10427557;28;20043;-74
2023/09/04 19:59:57;;;;;;;4.85;3.42;;;;;;;16.28;100.00;101759.50;10445093;28;20529;-74
2023/09/04 20:04:58;;;;;;;7.85;3.25;;;;;;;16.47;100.00;101752.28;10453095;28;20136;-74
2023/09/04 20:09:58;;;;;;;4.88;2.95;;;;;;;16.53;100.00;101759.50;10469421;28;20044;-73
2023/09/04 20:14:59;;;;;;;5.38;3.00;;;;;;;16.80;100.00;101742.88;10474980;28;20117;-74
2023/09/04 20:19:59;;;;;;;4.68;3.00;;;;;;;16.81;100.00;101739.38;10446878;28;20557;-74
2023/09/04 20:25:01;;;;;;;15.85;4.18;;;;;;;16.56;100.00;101747.34;10475034;28;20091;-74
2023/09/04 20:30:02;;;;;;;5.25;2.85;;;;;;;16.33;100.00;101748.22;10460387;28;20037;-74
2023/09/04 20:35:03;;;;;;;5.70;3.22;;;;;;;16.44;100.00;101739.84;10438540;28;20496;-74
2023/09/04 20:40:04;;;;;;;6.28;2.67;;;;;;;16.74;100.00;101733.00;10437694;28;20045;-74
2023/09/04 20:45:05;;;;;;;4.72;3.08;;;;;;;16.86;100.00;101743.09;10468217;28;20152;-74
2023/09/04 20:50:08;;;;;;;5.55;2.60;;;;;;;16.85;100.00;101741.28;10398990;28;20040;-74
2023/09/04 20:55:09;;;;;;;13.63;3.40;;;;;;;16.63;100.00;101743.16;10426258;28;20044;-74
2023/09/04 21:00:10;;;;;;;3.83;2.35;;;;;;;16.30;100.00;101735.78;10435705;28;20029;-74
2023/09/04 21:05:10;;;;;;;5.65;3.05;;;;;;;16.12;100.00;101728.94;10453415;28;20519;-73
2023/09/04 23:22:55;;;;;;;3.55;2.20;;;;;;;16.37;100.00;101648.00;10434771;28;20545;-74
2023/09/04 23:27:58;;;;;;;5.68;3.05;;;;;;;16.42;100.00;101643.75;10434539;28;20038;-77
2023/09/04 23:33:01;;;;;;;3.50;2.30;;;;;;;16.94;100.00;101658.78;10403480;28;20091;-75
2023/09/04 23:38:18;;;;;;;2.92;2.00;;;;;;;17.19;100.00;101654.34;10461338;28;20648;-75
2023/09/04 23:48:38;;;;;;;5.85;2.05;;;;;;;17.30;100.00;101645.88;10453566;28;20388;-75
2023/09/04 23:53:38;;;;;;;9.23;2.85;;;;;;;16.91;100.00;101650.72;10401141;28;20137;-75
2023/09/04 23:58:43;;;;;;;7.28;2.47;;;;;;;16.81;100.00;101655.72;10463324;28;20514;-74
